Time;durP1;ratioP1;P1;durP2;ratioP2;P2;SDS_P1;SDS_P2;PMS_P1;PMS_P2;Temp;Humidity;BMP_temperature;BMP_pressure;BME280_temperature;BME280_humidity;BME280_pressure;Samples;Min_cycle;Max_cycle;Signal;HPM_P1;HPM_P2
2022/09/04 00:02:08;;;;;;;3.35;2.15;;;;;;;19.38;41.66;101014.00;5044719;28;20099;-79
2022/09/04 00:04:44;;;;;;;4.28;2.33;;;;;;;19.36;41.18;101016.94;5047478;28;20087;-79
2022/09/04 00:07:21;;;;;;;3.60;1.90;;;;;;;19.34;41.46;101019.03;5034935;28;20060;-79
2022/09/04 00:10:00;;;;;;;3.17;2.33;;;;;;;19.31;41.90;101027.72;5042423;28;20037;-79
2022/09/04 00:12:32;;;;;;;3.25;2.10;;;;;;;19.29;41.12;101027.06;5033339;28;20104;-80
2022/09/04 00:15:05;;;;;;;2.43;1.90;;;;;;;19.26;41.36;101033.00;5045456;28;20044;-80
2022/09/04 00:17:41;;;;;;;3.00;2.03;;;;;;;19.25;41.85;101034.91;5050061;28;20123;-80
2022/09/04 00:20:17;;;;;;;2.58;1.80;;;;;;;19.22;41.27;101026.06;5045886;28;20076;-80
2022/09/04 00:22:52;;;;;;;3.35;2.13;;;;;;;19.19;41.83;101027.31;5030736;28;20118;-80
2022/09/04 00:25:32;;;;;;;3.55;2.10;;;;;;;19.15;41.93;101020.38;5044736;28;20067;-80
2022/09/04 00:28:05;;;;;;;2.78;2.10;;;;;;;19.12;41.85;101040.19;5042977;28;20045;-79
2022/09/04 00:30:37;;;;;;;3.03;1.90;;;;;;;19.09;41.28;101037.78;5044361;28;20044;-80
2022/09/04 00:33:12;;;;;;;3.63;2.20;;;;;;;19.05;41.84;101047.50;5038976;28;20038;-80
2022/09/04 00:35:53;;;;;;;3.03;2.08;;;;;;;19.03;42.10;101048.75;5040126;28;20048;-80
2022/09/04 00:38:38;;;;;;;3.15;2.20;;;;;;;19.00;41.85;101043.56;5045757;28;20044;-80
2022/09/04 00:41:15;;;;;;;3.17;2.10;;;;;;;18.97;41.99;101044.78;5034923;28;20052;-80
2022/09/04 00:44:01;;;;;;;3.40;2.42;;;;;;;18.93;42.76;101042.59;5043654;28;20136;-80
2022/09/04 00:47:06;;;;;;;3.75;2.38;;;;;;;18.85;42.77;101047.16;5041316;28;20397;-80
2022/09/04 00:49:58;;;;;;;3.92;2.60;;;;;;;18.87;42.71;101050.63;5016418;28;20094;-80
2022/09/04 00:52:44;;;;;;;4.18;2.45;;;;;;;18.84;42.59;101044.56;5056963;28;20095;-81
2022/09/04 00:55:28;;;;;;;3.17;2.25;;;;;;;18.82;42.66;101050.28;5044203;28;20131;-80
2022/09/04 00:58:11;;;;;;;3.65;2.40;;;;;;;18.82;43.15;101049.41;5044031;28;20103;-81
2022/09/04 01:00:39;;;;;;;3.95;2.40;;;;;;;18.75;41.84;101046.53;5040271;28;20052;-80
2022/09/04 01:03:20;;;;;;;4.35;2.55;;;;;;;18.77;42.72;101049.97;5043734;28;20033;-80
2022/09/04 01:06:09;;;;;;;3.45;2.30;;;;;;;18.77;43.11;101060.22;5036803;28;20048;-80
2022/09/04 01:08:58;;;;;;;3.67;2.38;;;;;;;18.74;43.03;101055.03;5047395;28;20053;-79
2022/09/04 01:11:39;;;;;;;3.30;2.05;;;;;;;18.73;42.61;101058.84;5042783;28;20034;-79
2022/09/04 01:14:16;;;;;;;3.72;2.45;;;;;;;18.70;42.68;101062.84;5039518;28;20041;-79
2022/09/04 01:16:51;;;;;;;3.47;2.30;;;;;;;18.68;42.66;101064.06;5043093;28;20095;-79
2022/09/04 01:19:37;;;;;;;3.40;2.17;;;;;;;18.67;42.98;101073.44;5041581;28;20107;-79
2022/09/04 01:22:20;;;;;;;3.28;2.25;;;;;;;18.65;43.18;101068.06;5043739;28;20049;-79
2022/09/04 01:25:00;;;;;;;2.90;2.08;;;;;;;18.62;42.98;101078.66;5044275;28;20128;-79
2022/09/04 01:27:36;;;;;;;3.28;2.60;;;;;;;18.62;43.20;101078.66;5041237;28;20492;-79
2022/09/04 01:30:10;;;;;;;4.10;2.58;;;;;;;18.61;42.83;101077.81;5029599;28;20153;-79
2022/09/04 01:32:59;;;;;;;3.50;2.30;;;;;;;18.60;42.94;101073.31;5062894;28;20045;-80
2022/09/04 01:35:35;;;;;;;3.42;2.28;;;;;;;18.61;42.96;101076.94;5035132;28;20103;-80
2022/09/04 01:38:13;;;;;;;4.10;2.50;;;;;;;18.59;42.93;101073.47;5041998;28;20109;-80
2022/09/04 01:40:47;;;;;;;3.70;2.45;;;;;;;18.59;43.14;101081.78;5046372;28;20090;-80
2022/09/04 01:43:19;;;;;;;2.75;1.90;;;;;;;18.59;42.60;101084.56;5041573;28;20045;-80
2022/09/04 01:46:17;;;;;;;3.30;2.30;;;;;;;18.57;43.00;101081.09;5045378;28;20028;-80
2022/09/04 01:48:51;;;;;;;3.30;2.13;;;;;;;18.58;42.92;101082.84;5038173;28;20512;-80
2022/09/04 01:51:33;;;;;;;3.30;2.25;;;;;;;18.59;43.36;101090.13;5061034;28;20081;-80
2022/09/04 01:54:12;;;;;;;3.30;2.25;;;;;;;18.58;43.65;101089.25;5036784;28;20090;-80
2022/09/04 01:56:47;;;;;;;3.17;2.10;;;;;;;18.57;43.23;101086.66;5042546;28;20065;-80
2022/09/04 01:59:26;;;;;;;3.72;2.28;;;;;;;18.57;43.42;101094.97;5043205;28;20450;-81
2022/09/04 02:02:04;;;;;;;3.80;2.35;;;;;;;18.55;43.06;101092.41;5033891;28;20493;-80
2022/09/04 02:04:43;;;;;;;3.40;2.45;;;;;;;18.55;43.68;101089.63;5042151;28;20140;-80
2022/09/04 02:07:21;;;;;;;3.70;2.40;;;;;;;18.52;43.01;101096.38;5047928;28;20071;-80
2022/09/04 02:10:00;;;;;;;3.20;2.45;;;;;;;18.54;43.42;101098.97;5036570;28;20131;-81
2022/09/04 02:13:03;;;;;;;3.50;2.35;;;;;;;18.53;43.43;101097.25;5056346;28;20045;-81
2022/09/04 02:15:44;;;;;;;3.05;2.00;;;;;;;18.51;43.56;101105.75;5059195;28;20053;-80
2022/09/04 02:18:23;;;;;;;3.97;2.45;;;;;;;18.51;43.34;101108.50;5038097;28;20029;-81
2022/09/04 02:20:59;;;;;;;3.17;2.28;;;;;;;18.51;43.49;101102.97;5046352;28;20037;-81
2022/09/04 02:23:38;;;;;;;3.35;2.28;;;;;;;18.50;43.51;101115.09;5037387;28;20056;-80
2022/09/04 02:26:14;;;;;;;3.83;2.55;;;;;;;18.50;43.36;101115.09;5045630;28;20063;-80
2022/09/04 02:28:53;;;;;;;3.08;2.40;;;;;;;18.49;43.49;101118.03;5043789;28;20486;-80
2022/09/04 02:31:32;;;;;;;3.80;2.90;;;;;;;18.48;43.64;101125.50;5037216;28;20057;-81
2022/09/04 02:34:08;;;;;;;3.85;2.40;;;;;;;18.47;43.83;101133.97;5043813;28;20052;-79
2022/09/04 02:36:43;;;;;;;3.72;2.58;;;;;;;18.46;43.10;101127.56;5042746;28;20076;-79
2022/09/04 02:39:25;;;;;;;3.50;2.50;;;;;;;18.44;44.13;101128.78;5032660;28;20045;-80
2022/09/04 02:42:04;;;;;;;4.55;2.80;;;;;;;18.40;44.19;101125.50;5038695;28;20060;-80
2022/09/04 02:44:43;;;;;;;3.63;2.80;;;;;;;18.40;44.54;101128.25;5036087;28;20069;-80
2022/09/04 02:47:24;;;;;;;4.10;2.75;;;;;;;18.38;43.66;101133.16;5046260;28;20033;-80
2022/09/04 02:49:59;;;;;;;3.53;2.40;;;;;;;18.36;44.00;101123.28;5047514;28;20049;-80
2022/09/04 02:52:42;;;;;;;4.97;2.60;;;;;;;18.33;44.04;101130.03;5050636;28;20045;-80
2022/09/04 02:55:29;;;;;;;4.38;2.90;;;;;;;18.28;44.12;101124.16;5058318;28;20046;-80
2022/09/04 02:58:13;;;;;;;4.07;2.63;;;;;;;18.26;44.17;101125.38;5050147;28;20483;-80
2022/09/04 03:00:53;;;;;;;4.10;2.55;;;;;;;18.24;43.63;101127.47;5038759;28;20103;-80
2022/09/04 03:03:31;;;;;;;3.95;2.58;;;;;;;18.22;44.13;101129.56;5044914;28;20045;-80
2022/09/04 03:06:04;;;;;;;5.10;2.83;;;;;;;18.19;43.40;101129.91;5041046;28;20063;-80
2022/09/04 03:08:37;;;;;;;4.57;2.45;;;;;;;18.17;43.96;101127.31;5049593;28;20048;-80
2022/09/04 03:11:15;;;;;;;3.70;2.47;;;;;;;18.15;44.46;101127.47;5041586;28;20087;-80
2022/09/04 03:13:50;;;;;;;4.25;2.80;;;;;;;18.13;44.32;101134.25;5033428;28;20542;-80
2022/09/04 03:16:26;;;;;;;4.20;2.60;;;;;;;18.12;44.15;101132.53;5043716;28;20057;-80
2022/09/04 03:19:08;;;;;;;6.30;2.63;;;;;;;18.09;44.59;101128.19;5051802;28;20102;-80
2022/09/04 03:21:46;;;;;;;4.18;2.90;;;;;;;18.06;44.62;101125.78;5044989;28;20052;-79
2022/09/04 03:24:22;;;;;;;4.68;2.80;;;;;;;18.02;44.63;101129.94;5041858;28;20051;-80
2022/09/04 03:26:55;;;;;;;4.82;2.58;;;;;;;17.99;43.84;101124.75;5045062;28;20557;-80
2022/09/04 03:29:36;;;;;;;4.47;2.40;;;;;;;17.96;44.09;101127.91;5037210;28;20361;-80
2022/09/04 03:32:15;;;;;;;3.30;2.40;;;;;;;17.94;44.47;101134.66;5038881;28;20090;-80
2022/09/04 03:34:55;;;;;;;3.65;2.35;;;;;;;17.92;44.61;101142.25;5038958;28;20042;-80
2022/09/04 03:37:35;;;;;;;3.60;2.60;;;;;;;17.89;44.54;101134.31;5046584;28;20507;-79
2022/09/04 03:40:19;;;;;;;3.70;2.78;;;;;;;17.85;44.80;101136.56;5047102;28;20041;-80
2022/09/04 03:43:06;;;;;;;3.60;2.45;;;;;;;17.81;45.29;101137.97;5049396;28;20065;-80
2022/09/04 03:45:46;;;;;;;3.30;2.33;;;;;;;17.77;44.88;101142.97;5050724;28;20076;-80
2022/09/04 03:48:32;;;;;;;3.78;2.60;;;;;;;17.74;44.81;101148.84;5039415;28;20042;-81
2022/09/04 03:51:13;;;;;;;4.03;2.75;;;;;;;17.70;45.14;101152.97;5061148;28;20041;-80
2022/09/04 03:53:45;;;;;;;3.95;2.40;;;;;;;17.67;44.25;101155.22;5040604;28;20046;-79
2022/09/04 03:56:32;;;;;;;4.20;2.60;;;;;;;17.67;45.04;101152.44;5041662;28;20056;-79
2022/09/04 03:59:04;;;;;;;3.35;2.40;;;;;;;17.61;44.55;101156.78;5031562;28;20068;-79
2022/09/04 04:01:46;;;;;;;4.05;2.40;;;;;;;17.60;45.69;101156.97;5050399;28;20040;-79
2022/09/04 04:04:51;;;;;;;4.43;2.78;;;;;;;17.56;45.64;101162.00;5034337;28;20095;-79
2022/09/04 04:07:34;;;;;;;4.25;2.70;;;;;;;17.55;45.77;101163.03;5045974;28;20052;-79
2022/09/04 04:10:18;;;;;;;3.72;2.58;;;;;;;17.54;45.24;101166.81;5048612;28;20561;-79
2022/09/04 04:13:11;;;;;;;3.92;2.60;;;;;;;17.50;45.24;101162.66;5051007;28;20048;-79
2022/09/04 04:15:57;;;;;;;3.45;2.42;;;;;;;17.49;45.44;101160.94;5053678;28;20045;-79
2022/09/04 04:18:44;;;;;;;3.50;2.53;;;;;;;17.49;45.37;101162.81;5056003;28;20098;-79
2022/09/04 04:21:26;;;;;;;5.68;3.33;;;;;;;17.49;45.46;101165.59;5051623;28;20037;-79
2022/09/04 04:24:11;;;;;;;3.65;2.47;;;;;;;17.48;45.46;101166.66;5048069;28;20052;-80
2022/09/04 04:27:03;;;;;;;4.30;2.72;;;;;;;17.46;45.75;101164.06;5048700;28;20099;-79
2022/09/04 04:29:51;;;;;;;3.50;2.78;;;;;;;17.44;45.36;101174.44;5042477;28;20059;-80
2022/09/04 04:32:32;;;;;;;3.65;2.63;;;;;;;17.45;45.39;101170.63;5048681;28;20672;-79
2022/09/04 04:35:24;;;;;;;4.03;2.53;;;;;;;17.44;45.96;101173.56;5047980;28;20407;-79
2022/09/04 04:38:08;;;;;;;3.78;2.40;;;;;;;17.44;45.67;101184.63;5037233;28;20049;-79
2022/09/04 04:40:58;;;;;;;3.60;2.50;;;;;;;17.41;45.69;101180.28;5048313;28;20662;-79
2022/09/04 04:43:36;;;;;;;3.63;2.10;;;;;;;17.40;45.55;101187.72;5050209;28;20037;-79
2022/09/04 04:46:16;;;;;;;3.50;2.60;;;;;;;17.41;45.73;101188.59;5048999;28;20041;-79
2022/09/04 04:49:16;;;;;;;3.42;2.47;;;;;;;17.36;45.69;101196.56;5041935;28;20108;-79
2022/09/04 04:52:14;;;;;;;3.58;2.53;;;;;;;17.34;46.25;101202.25;5065269;28;20086;-79
2022/09/04 04:54:58;;;;;;;3.35;2.20;;;;;;;17.34;45.72;101206.91;5043618;28;20045;-79
2022/09/04 04:57:38;;;;;;;3.88;2.40;;;;;;;17.31;45.53;101207.28;5041319;28;20045;-80
2022/09/04 05:00:14;;;;;;;3.53;2.50;;;;;;;17.29;45.29;101209.34;5032201;28;20120;-80
2022/09/04 05:02:52;;;;;;;4.20;2.67;;;;;;;17.28;45.67;101208.47;5040657;28;20080;-79
2022/09/04 05:05:45;;;;;;;3.75;2.45;;;;;;;17.28;45.35;101215.91;5032447;28;20412;-79
2022/09/04 05:08:26;;;;;;;3.53;2.53;;;;;;;17.25;46.03;101214.31;5035156;28;20088;-79
2022/09/04 05:10:59;;;;;;;3.55;2.38;;;;;;;17.26;45.14;101223.50;5045413;28;20399;-79
2022/09/04 05:13:40;;;;;;;3.10;2.25;;;;;;;17.28;46.04;101232.50;5046606;28;20053;-79
2022/09/04 05:16:18;;;;;;;3.60;2.55;;;;;;;17.27;45.88;101231.63;5039465;28;20049;-79
2022/09/04 05:18:55;;;;;;;3.53;2.63;;;;;;;17.28;45.37;101235.25;5035832;28;20492;-79
2022/09/04 05:21:33;;;;;;;3.78;2.60;;;;;;;17.28;46.11;101238.03;5036184;28;20459;-80
2022/09/04 05:24:09;;;;;;;3.70;2.45;;;;;;;17.27;45.52;101245.47;5041478;28;20068;-79
2022/09/04 05:26:46;;;;;;;4.75;2.53;;;;;;;17.28;46.05;101255.50;5042228;28;20156;-80
2022/09/04 05:29:24;;;;;;;4.85;2.60;;;;;;;17.29;45.93;101257.22;5039730;28;20080;-80
2022/09/04 05:32:05;;;;;;;5.05;2.90;;;;;;;17.27;45.27;101259.28;5044274;28;20056;-80
2022/09/04 05:34:58;;;;;;;3.38;2.47;;;;;;;17.26;46.31;101265.00;5041623;28;20060;-79
2022/09/04 05:37:35;;;;;;;3.28;2.40;;;;;;;17.28;45.78;101265.69;5037558;28;20476;-80
2022/09/04 05:40:13;;;;;;;4.07;2.60;;;;;;;17.28;45.51;101266.56;5038395;28;20041;-79
2022/09/04 05:42:53;;;;;;;3.60;2.60;;;;;;;17.27;45.44;101264.81;5045996;28;20052;-79
2022/09/04 05:45:31;;;;;;;4.13;2.67;;;;;;;17.29;46.12;101267.44;5046467;28;20135;-79
2022/09/04 05:48:10;;;;;;;3.63;2.58;;;;;;;17.29;46.15;101273.84;5042431;28;20557;-79
2022/09/04 05:50:50;;;;;;;3.03;2.30;;;;;;;17.30;45.85;101277.47;5043542;28;20041;-79
2022/09/04 05:53:43;;;;;;;3.15;2.45;;;;;;;17.29;46.11;101279.38;5049403;28;20136;-79
2022/09/04 05:56:36;;;;;;;3.92;2.55;;;;;;;17.26;46.42;101281.59;5047158;28;20045;-79
2022/09/04 05:59:30;;;;;;;4.78;2.38;;;;;;;17.28;45.97;101294.22;5041874;28;20040;-79
2022/09/04 06:02:17;;;;;;;3.38;2.25;;;;;;;17.29;45.85;101301.50;5039761;28;20500;-79
2022/09/04 06:05:10;;;;;;;3.58;2.58;;;;;;;17.27;46.25;101299.91;5039653;28;20060;-79
2022/09/04 06:07:47;;;;;;;3.67;2.77;;;;;;;17.25;46.22;101300.06;5062782;28;20057;-80
2022/09/04 06:10:20;;;;;;;3.47;2.45;;;;;;;17.29;46.22;101301.50;5042573;28;20037;-79
2022/09/04 06:13:27;;;;;;;4.30;2.35;;;;;;;17.28;46.37;101305.28;5034447;28;20041;-80
2022/09/04 06:16:11;;;;;;;4.03;2.33;;;;;;;17.31;46.35;101307.72;5022536;28;20400;-80
2022/09/04 06:18:57;;;;;;;4.28;2.55;;;;;;;17.34;46.44;101317.56;5020873;28;20042;-79
2022/09/04 06:21:53;;;;;;;4.05;2.60;;;;;;;17.35;46.96;101322.06;5022450;28;20038;-80
2022/09/04 06:24:46;;;;;;;4.18;2.63;;;;;;;17.37;46.39;101318.13;5033218;28;20041;-80
2022/09/04 06:27:38;;;;;;;3.22;2.33;;;;;;;17.40;46.24;101314.16;5045566;28;20033;-79
2022/09/04 06:30:10;;;;;;;3.20;2.10;;;;;;;17.44;46.14;101318.31;5042687;28;20045;-79
2022/09/04 06:33:09;;;;;;;3.28;2.45;;;;;;;17.47;46.27;101315.22;5047573;28;20570;-80
2022/09/04 06:36:01;;;;;;;4.50;2.33;;;;;;;17.53;46.64;101322.84;5044496;28;20051;-80
2022/09/04 06:38:40;;;;;;;3.00;2.37;;;;;;;17.56;46.83;101325.28;5044837;28;20041;-80
2022/09/04 06:41:28;;;;;;;3.60;2.60;;;;;;;17.62;46.57;101318.19;5050765;28;20686;-79
2022/09/04 06:44:07;;;;;;;4.22;2.65;;;;;;;17.65;46.70;101317.84;5039449;28;20405;-80
2022/09/04 06:46:42;;;;;;;4.07;2.60;;;;;;;17.72;46.64;101318.91;5045162;28;20681;-80
2022/09/04 06:49:21;;;;;;;4.03;2.40;;;;;;;17.76;47.18;101323.09;5043438;28;20049;-81
2022/09/04 06:52:11;;;;;;;4.00;2.47;;;;;;;17.81;46.38;101323.47;5041634;28;20439;-79
2022/09/04 06:54:58;;;;;;;4.10;2.80;;;;;;;17.88;46.65;101327.28;5044024;28;20176;-79
2022/09/04 06:57:52;;;;;;;3.78;2.53;;;;;;;17.95;46.57;101325.56;5042199;28;20037;-79
2022/09/04 07:00:22;;;;;;;4.00;2.88;;;;;;;18.06;47.03;101339.03;5041614;28;20128;-78
2022/09/04 07:03:31;;;;;;;3.47;2.47;;;;;;;18.25;46.51;101326.75;5047329;28;20098;-79
2022/09/04 07:06:09;;;;;;;3.92;2.60;;;;;;;18.44;46.96;101334.72;5049332;28;20053;-78
2022/09/04 07:08:53;;;;;;;3.92;2.50;;;;;;;18.72;46.25;101335.22;5046421;28;20091;-79
2022/09/04 07:11:38;;;;;;;4.07;2.60;;;;;;;19.00;46.15;101332.06;5041646;28;20493;-80
2022/09/04 07:14:22;;;;;;;3.88;2.60;;;;;;;19.31;45.90;101338.53;5054256;28;20678;-79
2022/09/04 07:17:00;;;;;;;4.45;3.13;;;;;;;19.62;45.40;101333.88;5056178;28;20049;-79
2022/09/04 07:19:42;;;;;;;3.20;2.30;;;;;;;19.98;45.01;101345.31;5063805;28;20186;-79
2022/09/04 07:22:30;;;;;;;3.30;2.28;;;;;;;20.32;44.33;101344.00;5066966;28;20044;-79
2022/09/04 07:25:12;;;;;;;4.15;2.53;;;;;;;20.66;43.56;101340.78;5064072;28;20037;-79
2022/09/04 07:27:59;;;;;;;3.75;2.45;;;;;;;20.98;43.55;101345.13;5065115;28;20041;-80
2022/09/04 07:30:34;;;;;;;3.80;2.33;;;;;;;21.33;43.82;101354.69;5068671;28;20443;-80
2022/09/04 07:33:10;;;;;;;2.92;2.15;;;;;;;21.68;42.82;101353.88;5059308;28;20033;-81
2022/09/04 07:35:42;;;;;;;4.00;2.13;;;;;;;22.00;42.44;101352.56;5083648;28;20499;-69
2022/09/04 07:38:19;;;;;;;3.30;2.30;;;;;;;22.35;41.18;101358.25;5065712;28;21286;-70
2022/09/04 07:40:55;;;;;;;3.72;2.33;;;;;;;22.64;40.10;101358.13;5066122;28;20033;-71
2022/09/04 07:43:36;;;;;;;3.85;2.53;;;;;;;22.90;39.71;101365.84;5058494;28;20045;-70
2022/09/04 07:46:13;;;;;;;2.72;1.85;;;;;;;23.12;39.84;101369.41;5065392;28;20032;-70
2022/09/04 07:48:47;;;;;;;3.75;2.40;;;;;;;23.31;39.28;101361.22;5058569;28;20048;-69
2022/09/04 07:51:18;;;;;;;3.08;2.05;;;;;;;23.46;38.94;101365.78;5061882;28;20065;-70
2022/09/04 07:54:28;;;;;;;3.05;2.22;;;;;;;23.55;38.40;101371.00;5068528;28;20688;-70
2022/09/04 07:57:12;;;;;;;4.00;2.22;;;;;;;23.72;37.87;101377.09;5058203;28;20080;-70
2022/09/04 07:59:58;;;;;;;3.00;2.10;;;;;;;23.80;37.36;101371.34;5065191;28;20045;-74
2022/09/04 08:02:36;;;;;;;4.20;2.90;;;;;;;23.87;37.40;101374.16;5054335;28;20055;-72
2022/09/04 08:05:24;;;;;;;3.95;2.88;;;;;;;23.91;37.16;101373.53;5069585;28;20049;-73
2022/09/04 08:08:39;;;;;;;4.55;2.78;;;;;;;23.95;37.13;101374.84;5067397;28;20040;-72
2022/09/04 08:11:44;;;;;;;4.80;2.60;;;;;;;23.98;37.07;101381.97;5062172;28;20044;-72
2022/09/04 08:14:23;;;;;;;3.08;2.13;;;;;;;24.03;36.81;101382.16;5064166;28;20036;-73
2022/09/04 08:17:09;;;;;;;3.28;1.83;;;;;;;24.06;36.81;101376.19;5061335;28;20048;-73
2022/09/04 08:19:44;;;;;;;3.72;1.95;;;;;;;24.08;36.73;101383.25;5062880;28;20124;-72
2022/09/04 08:22:28;;;;;;;2.85;1.83;;;;;;;24.11;36.56;101384.78;5062133;28;20095;-72
2022/09/04 08:25:16;;;;;;;3.22;1.90;;;;;;;24.14;36.60;101382.44;5075557;28;20079;-73
2022/09/04 08:28:17;;;;;;;3.75;2.10;;;;;;;24.13;36.45;101389.09;5058567;28;20619;-73
2022/09/04 08:30:54;;;;;;;3.05;1.88;;;;;;;24.23;36.54;101391.50;5046722;28;20048;-73
2022/09/04 08:33:51;;;;;;;4.18;2.30;;;;;;;24.30;36.33;101389.56;5062649;28;20059;-73
2022/09/04 08:36:30;;;;;;;3.33;1.98;;;;;;;24.37;36.08;101390.47;5048135;28;20445;-73
2022/09/04 08:39:06;;;;;;;3.58;2.20;;;;;;;24.45;36.04;101395.00;5064489;28;20040;-73
2022/09/04 08:42:06;;;;;;;3.20;2.22;;;;;;;24.51;36.01;101396.94;5068666;28;20044;-74
2022/09/04 08:45:18;;;;;;;3.75;2.13;;;;;;;24.59;35.65;101399.53;5054918;28;20045;-79
2022/09/04 08:48:41;;;;;;;4.03;1.83;;;;;;;24.59;36.09;101401.47;5023358;28;20076;-79
2022/09/04 08:52:03;;;;;;;3.50;2.05;;;;;;;24.70;35.91;101410.09;5084277;28;20052;-77
2022/09/04 08:55:13;;;;;;;3.15;1.95;;;;;;;24.80;35.75;101412.47;5007819;28;20507;-80
2022/09/04 08:58:30;;;;;;;3.15;2.13;;;;;;;24.90;35.82;101413.72;5004920;28;20140;-80
2022/09/04 09:01:39;;;;;;;3.58;2.30;;;;;;;25.00;35.33;101413.34;5063453;28;20060;-80
2022/09/04 09:05:08;;;;;;;3.03;2.03;;;;;;;25.04;35.14;101410.97;5059372;28;20072;-80
2022/09/04 09:08:10;;;;;;;2.70;1.65;;;;;;;25.19;34.97;101408.81;5004293;28;20045;-80
2022/09/04 09:10:55;;;;;;;2.63;1.92;;;;;;;25.27;35.55;101412.25;5052323;28;20060;-82
2022/09/04 09:13:45;;;;;;;3.80;1.83;;;;;;;25.37;34.85;101410.94;5052934;28;20127;-83
2022/09/04 09:16:24;;;;;;;2.42;1.65;;;;;;;25.46;34.62;101409.63;5063566;28;20033;-79
2022/09/04 09:19:24;;;;;;;2.78;1.80;;;;;;;25.55;34.35;101408.34;5085071;28;20068;-79
2022/09/04 09:22:36;;;;;;;3.13;2.00;;;;;;;25.64;34.51;101404.19;5063793;28;20048;-85
2022/09/04 09:25:19;;;;;;;3.05;1.75;;;;;;;25.77;33.77;101418.16;5058553;28;20044;-83
2022/09/04 09:28:22;;;;;;;3.70;2.30;;;;;;;25.88;33.34;101413.81;5066068;28;20422;-78
2022/09/04 09:31:28;;;;;;;3.63;1.92;;;;;;;25.93;33.81;101412.06;5063758;28;20040;-81
2022/09/04 09:34:35;;;;;;;2.88;1.85;;;;;;;26.04;33.81;101416.09;5069270;28;20414;-80
2022/09/04 09:37:58;;;;;;;2.83;1.80;;;;;;;26.14;33.80;101410.88;5067419;28;20041;-77
2022/09/04 09:41:02;;;;;;;3.53;1.92;;;;;;;26.25;33.12;101401.75;5000551;28;20136;-85
2022/09/04 09:44:01;;;;;;;2.53;1.73;;;;;;;26.35;33.09;101404.94;4989319;28;20045;-80
2022/09/04 09:47:03;;;;;;;3.35;2.13;;;;;;;26.39;32.07;101400.59;5061123;28;20472;-80
2022/09/04 09:50:10;;;;;;;2.83;1.83;;;;;;;26.43;32.70;101398.19;5060826;28;20060;-76
2022/09/04 09:53:10;;;;;;;2.28;1.52;;;;;;;26.54;32.54;101399.44;5068025;28;20045;-80
2022/09/04 09:56:04;;;;;;;2.13;1.50;;;;;;;26.60;32.76;101398.50;5059673;28;20073;-86
2022/09/04 09:59:21;;;;;;;2.53;1.65;;;;;;;26.62;32.67;101404.81;5056388;28;20044;-78
2022/09/04 10:02:17;;;;;;;3.42;1.70;;;;;;;26.75;32.27;101399.94;5060241;28;20041;-84
2022/09/04 10:05:21;;;;;;;3.88;1.90;;;;;;;26.86;32.23;101398.34;5060185;28;20036;-86
2022/09/04 10:08:22;;;;;;;4.18;1.98;;;;;;;26.93;32.67;101390.69;5073495;28;20131;-70
2022/09/04 10:11:16;;;;;;;5.03;2.25;;;;;;;27.07;32.18;101399.84;5064648;28;20525;-71
2022/09/04 10:14:19;;;;;;;33.28;22.05;;;;;;;27.16;32.19;101389.22;5062294;28;20404;-70
2022/09/04 10:17:21;;;;;;;293.05;262.20;;;;;;;27.24;31.64;101400.16;5054995;28;20056;-71
2022/09/04 10:20:20;;;;;;;611.17;552.55;;;;;;;27.34;31.99;101394.88;5054863;28;20048;-84
2022/09/04 10:23:19;;;;;;;362.33;330.52;;;;;;;27.44;31.68;101401.69;5053902;28;20047;-85
2022/09/04 10:26:25;;;;;;;284.17;259.55;;;;;;;27.49;31.59;101400.97;5060878;28;20094;-84
2022/09/04 10:29:37;;;;;;;225.52;204.30;;;;;;;27.64;31.66;101400.56;5025629;28;20086;-82
2022/09/04 10:32:39;;;;;;;190.23;173.80;;;;;;;27.80;31.28;101391.53;5059483;28;20090;-83
2022/09/04 10:35:24;;;;;;;148.63;134.65;;;;;;;27.95;31.04;101383.53;5062132;28;20036;-78
2022/09/04 10:38:16;;;;;;;326.83;296.23;;;;;;;28.12;30.92;101398.66;5061034;28;20043;-82
2022/09/04 10:41:14;;;;;;;229.13;206.45;;;;;;;28.28;29.94;101404.75;5055293;28;20090;-81
2022/09/04 10:43:58;;;;;;;118.35;106.93;;;;;;;28.43;30.08;101394.78;5058821;28;20040;-81
2022/09/04 10:46:35;;;;;;;52.63;47.55;;;;;;;28.58;29.91;101395.19;5060759;28;20044;-80
2022/09/04 10:49:19;;;;;;;28.10;25.35;;;;;;;28.73;29.92;101393.91;5055699;28;20068;-82
2022/09/04 10:52:23;;;;;;;22.55;20.80;;;;;;;28.85;29.75;101391.97;5056160;28;20442;-82
2022/09/04 10:55:15;;;;;;;710.10;644.92;;;;;;;29.01;29.08;101398.84;5060350;28;20072;-82
2022/09/04 10:58:11;;;;;;;482.77;443.60;;;;;;;29.13;29.19;101392.09;5032350;28;20052;-82
2022/09/04 11:00:49;;;;;;;323.15;300.08;;;;;;;29.27;28.32;101389.91;5050873;28;20072;-82
2022/09/04 11:03:54;;;;;;;193.32;179.90;;;;;;;29.37;28.34;101392.97;5056801;28;20040;-81
2022/09/04 11:06:51;;;;;;;281.45;265.50;;;;;;;29.49;28.79;101391.00;5070773;28;20690;-82
2022/09/04 11:09:50;;;;;;;135.02;127.03;;;;;;;29.60;28.49;101389.25;5061883;28;20045;-79
2022/09/04 11:12:54;;;;;;;52.75;49.55;;;;;;;29.73;27.84;101389.03;5055982;28;20395;-80
2022/09/04 11:15:57;;;;;;;22.45;20.98;;;;;;;29.88;27.36;101396.94;5068312;28;20056;-79
2022/09/04 11:19:22;;;;;;;11.15;10.25;;;;;;;29.91;27.72;101396.47;5058889;28;20067;-82
2022/09/04 11:22:40;;;;;;;5.82;5.32;;;;;;;30.07;26.91;101390.03;5001011;28;20046;-81
2022/09/04 11:25:50;;;;;;;4.47;4.07;;;;;;;30.14;26.62;101390.72;5003590;28;20069;-87
2022/09/04 11:28:45;;;;;;;9.80;7.80;;;;;;;30.17;26.30;101389.38;5041343;28;20045;-72
2022/09/04 11:31:31;;;;;;;7.57;5.40;;;;;;;30.21;25.87;101390.56;5063908;28;20040;-71
2022/09/04 11:34:33;;;;;;;4.22;3.22;;;;;;;30.17;26.16;101395.84;5063390;28;20041;-72
2022/09/04 11:37:43;;;;;;;4.45;3.30;;;;;;;30.04;26.11;101388.53;5061822;28;20071;-72
2022/09/04 11:40:48;;;;;;;4.10;2.72;;;;;;;30.04;25.79;101384.88;5027849;28;20132;-72
2022/09/04 11:44:00;;;;;;;3.30;2.20;;;;;;;29.94;25.30;101381.81;5062098;28;20048;-71
2022/09/04 11:46:45;;;;;;;;;;;;;;;29.55;26.66;101387.19;5041264;28;20126;-71
2022/09/04 11:49:58;;;;;;;3.45;2.30;;;;;;;29.65;26.29;101378.94;5065249;28;19920;-72
2022/09/04 11:52:34;;;;;;;;;;;;;;;29.33;27.04;101375.69;5064502;28;20102;-81
2022/09/04 11:55:19;;;;;;;2.70;1.80;;;;;;;29.57;25.63;101381.31;5066328;28;19964;-83
2022/09/04 11:58:08;;;;;;;2.50;1.50;;;;;;;29.50;25.44;101378.63;5068182;28;20059;-83
2022/09/04 12:00:47;;;;;;;2.58;1.63;;;;;;;29.44;25.47;101378.72;5083440;28;20052;-84
2022/09/04 12:03:35;;;;;;;2.17;1.40;;;;;;;29.39;26.11;101376.66;5070551;28;20042;-83
2022/09/04 12:06:33;;;;;;;2.03;1.38;;;;;;;29.34;26.11;101376.56;5059255;28;20064;-83
2022/09/04 12:09:31;;;;;;;2.33;1.45;;;;;;;29.34;25.43;101370.94;5064173;28;20090;-83
2022/09/04 12:12:27;;;;;;;2.30;1.48;;;;;;;29.35;25.32;101381.06;5059219;28;20073;-83
2022/09/04 12:15:13;;;;;;;1.88;1.35;;;;;;;29.36;25.51;101377.16;5062326;28;20455;-82
2022/09/04 12:18:14;;;;;;;2.63;1.52;;;;;;;29.34;26.01;101377.38;5061429;28;20557;-82
2022/09/04 12:21:25;;;;;;;2.20;1.60;;;;;;;29.31;25.88;101385.50;5058284;28;20052;-83
2022/09/04 12:24:30;;;;;;;2.58;1.63;;;;;;;29.37;25.92;101384.50;5043114;28;20058;-83
2022/09/04 12:27:31;;;;;;;1.92;1.42;;;;;;;29.39;25.33;101382.31;5066027;28;20150;-83
2022/09/04 12:30:06;;;;;;;2.90;1.58;;;;;;;29.40;25.45;101389.66;5061377;28;20468;-83
2022/09/04 12:33:06;;;;;;;1.77;1.27;;;;;;;29.38;25.75;101386.22;5059663;28;20075;-83
2022/09/04 12:36:00;;;;;;;1.88;1.42;;;;;;;29.41;25.42;101379.25;5065688;28;20044;-84
2022/09/04 12:39:10;;;;;;;2.95;1.58;;;;;;;29.36;25.40;101388.44;5067005;28;20049;-83
2022/09/04 12:41:48;;;;;;;2.60;1.38;;;;;;;29.35;25.79;101383.88;5050191;28;20060;-83
2022/09/04 12:44:30;;;;;;;2.55;1.50;;;;;;;29.34;25.32;101377.38;5054328;28;20037;-83
2022/09/04 12:47:06;;;;;;;;;;;;;;;29.00;26.46;101383.88;5058097;28;20087;-83
2022/09/04 12:50:08;;;;;;;1.45;1.10;;;;;;;29.26;25.05;101377.75;5051549;28;19920;-83
2022/09/04 12:52:51;;;;;;;2.38;1.55;;;;;;;29.24;25.18;101381.97;5059836;28;20080;-82
2022/09/04 12:55:29;;;;;;;1.90;1.40;;;;;;;29.22;25.09;101382.16;5066169;28;20044;-83
2022/09/04 12:58:13;;;;;;;1.75;1.35;;;;;;;29.19;25.07;101385.47;5059783;28;20213;-82